Terminal Aerodrome Forecast
Issued by NWS Duluth, MN

Home | Current Version | Previous Version | Text Only | Print | Product List | Glossary On
Versions: 1 2 3 4 5 6 7 8 9 10 11 12 13 14 15 16 17 18
269
FTUS43 KDLH 240520
TAFINL
TAF
KINL 240520Z 2406/2506 13004KT P6SM VCSH FEW040 OVC070
     FM240800 09010KT 5SM -RASN BKN015 OVC040
     FM241100 08012KT P6SM BKN015 OVC040
     FM241800 09012G20KT P6SM VCSH OVC025
     FM242200 09012G18KT 2SM -SHRA OVC012
     FM250200 09012KT 2SM -SHRA OVC008=

USA.gov is the U.S. government's official web portal to all federal, state and local government web resources and services.